Time;durP1;ratioP1;P1;durP2;ratioP2;P2;SDS_P1;SDS_P2;PMS_P1;PMS_P2;Temp;Humidity;BMP_temperature;BMP_pressure;BME280_temperature;BME280_humidity;BME280_pressure;Samples;Min_cycle;Max_cycle;Signal;HPM_P1;HPM_P2
2022/10/08 00:01:04;;;;;;;15.93;4.10;;;13.30;99.90;;;;;;5062559;28;20501;-68
2022/10/08 00:03:33;;;;;;;11.25;3.42;;;13.30;99.90;;;;;;5059148;28;20033;-69
2022/10/08 00:06:05;;;;;;;9.52;2.63;;;13.30;99.90;;;;;;5058442;28;20044;-68
2022/10/08 00:08:34;;;;;;;12.82;3.60;;;13.30;99.90;;;;;;5057628;28;20025;-69
2022/10/08 00:11:05;;;;;;;9.38;3.58;;;13.40;99.90;;;;;;5064587;28;20035;-68
2022/10/08 00:13:39;;;;;;;17.27;3.83;;;13.30;99.90;;;;;;5062481;28;20071;-68
2022/10/08 00:16:30;;;;;;;12.50;3.78;;;13.30;99.90;;;;;;5061750;28;20041;-68
2022/10/08 00:19:03;;;;;;;15.45;3.58;;;13.30;99.90;;;;;;5063658;28;20124;-68
2022/10/08 00:21:33;;;;;;;;;;;13.30;99.90;;;;;;5065494;28;20029;-68
2022/10/08 00:24:02;;;;;;;14.90;4.45;;;13.30;99.90;;;;;;5061989;28;19908;-68
2022/10/08 00:26:30;;;;;;;14.55;3.80;;;13.40;99.90;;;;;;5061863;28;20100;-68
2022/10/08 00:28:58;;;;;;;12.32;3.88;;;13.40;99.90;;;;;;5060316;28;20048;-68
2022/10/08 00:31:27;;;;;;;20.75;4.05;;;13.40;99.90;;;;;;5062161;28;20066;-68
2022/10/08 00:33:55;;;;;;;13.07;4.28;;;13.40;99.90;;;;;;5060891;28;20048;-68
2022/10/08 00:36:24;;;;;;;8.73;3.22;;;13.40;99.90;;;;;;5061400;28;20491;-68
2022/10/08 00:38:58;;;;;;;8.43;3.33;;;13.30;99.90;;;;;;5058933;28;20024;-68
2022/10/08 00:41:26;;;;;;;13.38;3.55;;;13.20;99.90;;;;;;5060421;28;20044;-68
2022/10/08 00:43:54;;;;;;;15.07;3.83;;;13.30;99.90;;;;;;5060819;28;20414;-68
2022/10/08 00:46:35;;;;;;;10.57;3.00;;;13.30;99.90;;;;;;5060513;28;20158;-68
2022/10/08 00:49:12;;;;;;;9.20;3.10;;;13.30;99.90;;;;;;5060931;28;20040;-68
2022/10/08 00:51:43;;;;;;;10.15;3.40;;;13.30;99.90;;;;;;5058998;28;20035;-68
2022/10/08 00:54:10;;;;;;;8.85;3.10;;;13.40;99.90;;;;;;5063232;28;20074;-68
2022/10/08 00:56:37;;;;;;;11.55;3.22;;;13.40;99.90;;;;;;5060928;28;20469;-68
2022/10/08 00:59:04;;;;;;;17.55;3.80;;;13.50;99.90;;;;;;5060553;28;20025;-69
2022/10/08 01:01:30;;;;;;;12.95;3.40;;;13.50;99.90;;;;;;5062342;28;20037;-68
2022/10/08 01:04:00;;;;;;;17.65;4.15;;;13.60;99.90;;;;;;5059803;28;20040;-68
2022/10/08 01:06:29;;;;;;;14.80;3.80;;;13.50;99.90;;;;;;5062297;28;20388;-68
2022/10/08 01:09:14;;;;;;;8.32;2.58;;;13.60;99.90;;;;;;5060091;28;20032;-68
2022/10/08 01:11:47;;;;;;;18.48;4.03;;;13.60;99.90;;;;;;5060564;28;20074;-68
2022/10/08 01:14:22;;;;;;;10.15;3.10;;;13.70;99.90;;;;;;5061337;28;20017;-68
2022/10/08 01:17:13;;;;;;;11.13;3.00;;;13.70;99.90;;;;;;5061880;28;20047;-68
2022/10/08 01:19:41;;;;;;;10.68;3.13;;;13.70;99.90;;;;;;5060225;28;20056;-68
2022/10/08 01:22:28;;;;;;;13.40;3.55;;;13.70;99.90;;;;;;5061661;28;20033;-68
2022/10/08 01:27:50;;;;;;;10.93;3.55;;;13.80;99.90;;;;;;5061241;28;20111;-68
2022/10/08 01:30:17;;;;;;;11.23;3.83;;;13.80;99.90;;;;;;5060190;28;20017;-68
2022/10/08 01:33:09;;;;;;;12.57;3.50;;;13.80;99.90;;;;;;5062201;28;20489;-68
2022/10/08 01:35:36;;;;;;;13.48;3.60;;;13.90;99.90;;;;;;5059463;28;20351;-68
2022/10/08 01:38:05;;;;;;;9.20;3.28;;;13.90;99.90;;;;;;5063797;28;20013;-68
2022/10/08 01:40:35;;;;;;;9.73;3.20;;;13.90;99.90;;;;;;5061040;28;20028;-68
2022/10/08 01:43:05;;;;;;;11.95;3.38;;;14.00;99.90;;;;;;5060960;28;20033;-68
2022/10/08 01:45:36;;;;;;;15.80;3.88;;;14.00;99.90;;;;;;5061310;28;20016;-68
2022/10/08 01:48:07;;;;;;;10.88;3.90;;;14.00;99.90;;;;;;5059913;28;20563;-68
2022/10/08 01:50:39;;;;;;;17.52;3.72;;;14.00;99.90;;;;;;5062283;28;20108;-68
2022/10/08 01:53:12;;;;;;;13.40;3.38;;;14.10;99.90;;;;;;5060896;28;20021;-68
2022/10/08 01:55:43;;;;;;;11.90;3.10;;;14.00;99.90;;;;;;5060501;28;20564;-68
2022/10/08 01:58:20;;;;;;;11.00;2.97;;;14.10;99.90;;;;;;5061573;28;20032;-68
2022/10/08 02:00:49;;;;;;;10.77;2.88;;;14.00;99.90;;;;;;5061595;28;20501;-69
2022/10/08 02:03:14;;;;;;;12.35;3.75;;;14.10;99.90;;;;;;5060607;28;20031;-68
2022/10/08 02:05:47;;;;;;;13.23;3.45;;;14.10;99.90;;;;;;5062218;28;20013;-68
2022/10/08 02:08:13;;;;;;;11.75;3.10;;;14.20;99.90;;;;;;5071555;28;20086;-69
2022/10/08 02:10:39;;;;;;;14.98;3.60;;;14.20;99.90;;;;;;5074584;28;20055;-69
2022/10/08 02:13:05;;;;;;;11.65;3.42;;;14.20;99.90;;;;;;5074646;28;20059;-68
2022/10/08 02:15:40;;;;;;;14.15;3.95;;;14.20;99.90;;;;;;5075662;28;20047;-68
2022/10/08 02:18:17;;;;;;;9.75;3.58;;;14.20;99.90;;;;;;5075619;28;20032;-69
2022/10/08 02:20:55;;;;;;;17.80;4.05;;;14.20;99.90;;;;;;5069644;28;20036;-67
2022/10/08 02:23:28;;;;;;;11.00;3.05;;;14.20;99.90;;;;;;5055703;28;20436;-68
2022/10/08 02:25:58;;;;;;;;;;;14.10;99.90;;;;;;5058041;28;20393;-68
2022/10/08 02:28:38;;;;;;;14.30;3.38;;;14.10;99.90;;;;;;5075842;28;19905;-68
2022/10/08 02:31:25;;;;;;;12.30;3.08;;;14.20;99.90;;;;;;5075316;28;20017;-68
2022/10/08 02:34:02;;;;;;;18.33;4.05;;;14.20;99.90;;;;;;5073692;28;20036;-68
2022/10/08 02:36:33;;;;;;;13.40;3.95;;;14.10;99.90;;;;;;5073658;28;20028;-69
2022/10/08 02:39:03;;;;;;;13.35;3.75;;;14.10;99.90;;;;;;5074489;28;20385;-69
2022/10/08 02:41:57;;;;;;;9.13;3.72;;;14.10;99.90;;;;;;5075142;28;20036;-69
2022/10/08 02:44:32;;;;;;;12.43;4.10;;;14.20;99.90;;;;;;5074988;28;20041;-69
2022/10/08 02:47:02;;;;;;;9.07;3.33;;;14.20;99.90;;;;;;5074928;28;20085;-69
2022/10/08 02:49:31;;;;;;;13.13;3.90;;;14.20;99.90;;;;;;5075027;28;20512;-69
2022/10/08 02:52:00;;;;;;;14.20;3.85;;;14.30;99.90;;;;;;5074598;28;20017;-69
2022/10/08 02:54:30;;;;;;;17.33;5.40;;;14.30;99.90;;;;;;5075040;28;20082;-68
2022/10/08 02:57:00;;;;;;;7.40;3.92;;;14.30;99.90;;;;;;5054927;28;20090;-68
2022/10/08 02:59:26;;;;;;;15.05;4.00;;;14.40;99.90;;;;;;5070346;28;20077;-68
2022/10/08 03:02:03;;;;;;;12.05;4.28;;;14.40;99.90;;;;;;5074132;28;20116;-68
2022/10/08 03:04:54;;;;;;;13.50;3.90;;;14.40;99.90;;;;;;5074460;28;20075;-68
2022/10/08 03:07:23;;;;;;;13.15;3.92;;;14.40;99.90;;;;;;5066539;28;20055;-69
2022/10/08 03:09:50;;;;;;;11.18;3.92;;;14.40;99.90;;;;;;5074756;28;20020;-68
2022/10/08 03:12:17;;;;;;;15.40;4.00;;;14.40;99.90;;;;;;5073770;28;20033;-69
2022/10/08 03:14:48;;;;;;;12.50;2.88;;;14.40;99.90;;;;;;5057962;28;20033;-69
2022/10/08 03:17:29;;;;;;;13.27;3.90;;;14.30;99.90;;;;;;5054411;28;20033;-69
2022/10/08 03:19:55;;;;;;;11.20;3.08;;;14.30;99.90;;;;;;5054064;28;20066;-69
2022/10/08 03:22:22;;;;;;;5.68;2.35;;;14.30;99.90;;;;;;5053852;28;20115;-70
2022/10/08 03:24:47;;;;;;;14.00;3.30;;;14.30;99.90;;;;;;5054468;28;20072;-68
2022/10/08 03:27:13;;;;;;;10.40;2.67;;;14.30;99.90;;;;;;5054134;28;20033;-69
2022/10/08 03:29:39;;;;;;;11.25;2.70;;;14.30;99.90;;;;;;5062488;28;20051;-69
2022/10/08 03:32:05;;;;;;;12.98;3.17;;;14.30;99.90;;;;;;5073948;28;20074;-69
2022/10/08 03:34:31;;;;;;;10.60;3.00;;;14.20;99.90;;;;;;5073711;28;20028;-69
2022/10/08 03:36:57;;;;;;;10.15;2.28;;;14.20;99.90;;;;;;5065961;28;20021;-69
2022/10/08 03:39:22;;;;;;;12.00;2.85;;;14.20;99.90;;;;;;5054318;28;20390;-69
2022/10/08 03:41:48;;;;;;;11.13;2.85;;;14.10;99.90;;;;;;5052708;28;20044;-69
2022/10/08 03:44:13;;;;;;;11.63;2.72;;;14.10;99.90;;;;;;5053905;28;20093;-69
2022/10/08 03:46:39;;;;;;;12.48;3.10;;;14.10;99.90;;;;;;5053906;28;20389;-69
2022/10/08 03:49:05;;;;;;;13.52;2.63;;;14.10;99.90;;;;;;5053898;28;20024;-69
2022/10/08 03:51:30;;;;;;;12.07;3.08;;;14.10;99.90;;;;;;5053745;28;20105;-69
2022/10/08 03:53:56;;;;;;;9.68;3.03;;;14.10;99.90;;;;;;5052149;28;20104;-69
2022/10/08 03:56:23;;;;;;;8.88;3.38;;;14.10;99.90;;;;;;5053780;28;20495;-69
2022/10/08 03:58:56;;;;;;;10.32;3.20;;;14.10;99.90;;;;;;5053437;28;20025;-69
2022/10/08 04:01:22;;;;;;;9.35;3.78;;;14.20;99.90;;;;;;5058016;28;20380;-69
2022/10/08 04:03:47;;;;;;;8.90;3.47;;;14.20;99.90;;;;;;5064540;28;20485;-69
2022/10/08 04:06:14;;;;;;;11.13;3.10;;;14.20;99.90;;;;;;5054135;28;20120;-69
2022/10/08 04:08:40;;;;;;;15.82;4.60;;;14.30;99.90;;;;;;5073606;28;20427;-69
2022/10/08 04:11:08;;;;;;;9.52;4.45;;;14.30;99.90;;;;;;5072062;28;20016;-69
2022/10/08 04:13:35;;;;;;;12.10;4.90;;;14.20;99.90;;;;;;5073402;28;20027;-69
2022/10/08 04:16:03;;;;;;;9.70;5.05;;;14.20;99.90;;;;;;5073053;28;20547;-69
2022/10/08 04:18:29;;;;;;;11.27;5.75;;;14.10;99.90;;;;;;5073094;28;20101;-69
2022/10/08 04:21:03;;;;;;;11.52;5.30;;;14.10;99.90;;;;;;5073353;28;20453;-69
2022/10/08 04:23:32;;;;;;;9.65;5.80;;;14.10;99.90;;;;;;5071908;28;20021;-69
2022/10/08 04:25:57;;;;;;;9.77;5.82;;;14.10;99.90;;;;;;5073451;28;20020;-69
2022/10/08 04:28:23;;;;;;;12.68;5.82;;;14.10;99.90;;;;;;5072782;28;20027;-69
2022/10/08 04:31:02;;;;;;;8.45;6.07;;;14.00;99.90;;;;;;5072720;28;20048;-69
2022/10/08 04:33:30;;;;;;;9.95;6.47;;;14.00;99.90;;;;;;5072285;28;20079;-69
2022/10/08 04:35:56;;;;;;;12.82;7.50;;;14.00;99.90;;;;;;5071817;28;20017;-69
2022/10/08 04:38:22;;;;;;;11.45;7.45;;;14.00;99.90;;;;;;5071520;28;20480;-69
2022/10/08 04:40:48;;;;;;;12.43;8.00;;;14.10;99.90;;;;;;5072894;28;20063;-69
2022/10/08 04:43:14;;;;;;;14.95;9.30;;;14.00;99.90;;;;;;5072554;28;20063;-69
2022/10/08 04:45:44;;;;;;;13.27;8.95;;;14.00;99.90;;;;;;5072623;28;20016;-69
2022/10/08 04:48:10;;;;;;;18.58;9.50;;;14.00;99.90;;;;;;5072800;28;20036;-69
2022/10/08 04:50:36;;;;;;;15.93;9.65;;;14.00;99.90;;;;;;5072443;28;20012;-69
2022/10/08 04:53:01;;;;;;;14.90;9.63;;;14.00;99.90;;;;;;5052033;28;20082;-69
2022/10/08 04:55:27;;;;;;;15.88;10.23;;;14.10;99.90;;;;;;5052791;28;20024;-69
2022/10/08 04:57:53;;;;;;;30.02;12.88;;;14.10;99.90;;;;;;5052461;28;20021;-69
2022/10/08 05:00:18;;;;;;;17.73;9.73;;;14.00;99.90;;;;;;5055702;28;20544;-69
2022/10/08 05:02:44;;;;;;;17.02;10.40;;;14.00;99.90;;;;;;5070339;28;20052;-69
2022/10/08 05:05:09;;;;;;;18.63;10.65;;;14.10;99.90;;;;;;5055127;28;20025;-69
2022/10/08 05:07:35;;;;;;;16.42;10.68;;;14.10;99.90;;;;;;5062777;28;20029;-69
2022/10/08 05:10:01;;;;;;;18.45;10.77;;;14.10;99.90;;;;;;5071776;28;20021;-69
2022/10/08 05:12:26;;;;;;;23.60;11.43;;;14.10;99.90;;;;;;5072527;28;20056;-69
2022/10/08 05:14:52;;;;;;;17.98;12.25;;;14.00;99.90;;;;;;5070258;28;20657;-69
2022/10/08 05:17:17;;;;;;;25.38;12.90;;;14.10;99.90;;;;;;5072401;28;20078;-69
2022/10/08 05:19:43;;;;;;;19.58;11.45;;;14.10;99.90;;;;;;5072537;28;20031;-69
2022/10/08 05:22:08;;;;;;;21.98;14.13;;;14.20;99.90;;;;;;5072090;28;20473;-69
2022/10/08 05:24:34;;;;;;;24.98;12.65;;;14.10;99.90;;;;;;5064979;28;20112;-69
2022/10/08 05:26:59;;;;;;;27.02;14.52;;;14.10;99.90;;;;;;5067744;28;20473;-69
2022/10/08 05:29:27;;;;;;;25.75;13.90;;;14.10;99.90;;;;;;5058113;28;20025;-69
2022/10/08 05:31:52;;;;;;;25.75;13.20;;;14.10;99.90;;;;;;5059151;28;20109;-69
2022/10/08 05:34:18;;;;;;;25.90;15.70;;;14.10;99.90;;;;;;5061801;28;20151;-69
2022/10/08 05:36:44;;;;;;;31.38;17.92;;;14.10;99.90;;;;;;5059265;28;20021;-69
2022/10/08 05:39:09;;;;;;;26.58;15.80;;;14.10;99.90;;;;;;5053941;28;20485;-69
2022/10/08 05:41:36;;;;;;;32.38;16.40;;;14.10;99.90;;;;;;5051795;28;20086;-69
2022/10/08 05:44:03;;;;;;;31.38;18.10;;;14.20;99.90;;;;;;5053180;28;20013;-69
2022/10/08 05:46:31;;;;;;;39.92;20.02;;;14.10;99.90;;;;;;5056391;28;20543;-69
2022/10/08 05:48:58;;;;;;;37.08;21.70;;;14.20;99.90;;;;;;5061082;28;20032;-68
2022/10/08 05:51:25;;;;;;;43.70;20.65;;;14.20;99.90;;;;;;5063839;28;20389;-69
2022/10/08 05:53:51;;;;;;;39.83;21.65;;;14.20;99.90;;;;;;5061242;28;20048;-69
2022/10/08 05:56:19;;;;;;;47.67;24.73;;;14.20;99.90;;;;;;5055418;28;20021;-70
2022/10/08 05:58:46;;;;;;;52.72;27.42;;;14.20;99.90;;;;;;5055772;28;20047;-69
2022/10/08 06:01:26;;;;;;;47.85;25.42;;;14.20;99.90;;;;;;5055683;28;20503;-69
2022/10/08 06:03:57;;;;;;;50.17;27.92;;;14.20;99.90;;;;;;5055848;28;20500;-69
2022/10/08 06:06:24;;;;;;;46.35;26.80;;;14.30;99.90;;;;;;5055864;28;20032;-69
2022/10/08 06:08:56;;;;;;;53.75;28.35;;;14.30;99.90;;;;;;5054434;28;20096;-69
2022/10/08 06:11:22;;;;;;;45.08;26.27;;;14.30;99.90;;;;;;5055721;28;20028;-69
2022/10/08 06:13:51;;;;;;;42.30;25.90;;;14.20;99.90;;;;;;5055997;28;20033;-69
2022/10/08 06:16:17;;;;;;;47.42;26.52;;;14.20;99.90;;;;;;5062479;28;20036;-69
2022/10/08 06:18:43;;;;;;;51.92;27.92;;;14.20;99.90;;;;;;5059564;28;20500;-69
2022/10/08 06:21:11;;;;;;;48.92;27.35;;;14.20;99.90;;;;;;5059169;28;20498;-69
2022/10/08 06:23:38;;;;;;;52.70;27.95;;;14.20;99.90;;;;;;5057142;28;20077;-69
2022/10/08 06:26:07;;;;;;;47.97;27.75;;;14.10;99.90;;;;;;5060385;28;20017;-69
2022/10/08 06:28:35;;;;;;;41.40;26.90;;;14.10;99.90;;;;;;5075299;28;20032;-69
2022/10/08 06:31:01;;;;;;;46.65;26.77;;;14.20;99.90;;;;;;5075257;28;20021;-69
2022/10/08 06:33:27;;;;;;;49.05;27.33;;;14.20;99.90;;;;;;5075625;28;20480;-69
2022/10/08 06:35:52;;;;;;;50.90;25.92;;;14.20;99.90;;;;;;5074408;28;20115;-69
2022/10/08 06:38:18;;;;;;;49.47;27.42;;;14.20;99.90;;;;;;5075098;28;20064;-69
2022/10/08 06:40:44;;;;;;;38.55;25.23;;;14.20;99.90;;;;;;5075070;28;20481;-69
2022/10/08 06:43:15;;;;;;;48.40;28.55;;;14.20;99.90;;;;;;5064481;28;20068;-69
2022/10/08 06:45:42;;;;;;;44.75;24.63;;;14.20;99.90;;;;;;5055372;28;20040;-69
2022/10/08 06:48:08;;;;;;;41.58;22.17;;;14.20;99.90;;;;;;5064731;28;20315;-69
2022/10/08 06:50:35;;;;;;;40.85;22.80;;;14.20;99.90;;;;;;5059827;28;20619;-69
2022/10/08 06:53:06;;;;;;;45.38;23.05;;;14.20;99.90;;;;;;5064201;28;20024;-69
2022/10/08 06:55:32;;;;;;;40.88;22.58;;;14.20;99.90;;;;;;5062444;28;20021;-69
2022/10/08 06:57:58;;;;;;;34.47;20.23;;;14.30;99.90;;;;;;5065027;28;20247;-69
2022/10/08 07:00:24;;;;;;;38.55;22.25;;;14.20;99.90;;;;;;5064081;28;20024;-69
2022/10/08 07:02:50;;;;;;;37.20;19.98;;;14.20;99.90;;;;;;5062519;28;20112;-69
2022/10/08 07:05:15;;;;;;;36.38;20.02;;;14.20;99.90;;;;;;5053456;28;20028;-67
2022/10/08 07:07:41;;;;;;;37.15;19.88;;;14.20;99.90;;;;;;5065149;28;20036;-68
2022/10/08 07:10:07;;;;;;;30.98;18.35;;;14.20;99.90;;;;;;5056131;28;20025;-68
2022/10/08 07:12:33;;;;;;;31.67;17.63;;;14.20;99.90;;;;;;5054326;28;20033;-67
2022/10/08 07:14:59;;;;;;;31.20;17.35;;;14.20;99.90;;;;;;5053851;28;20485;-69
2022/10/08 07:17:27;;;;;;;38.38;16.98;;;14.20;99.90;;;;;;5051767;28;20390;-68
2022/10/08 07:19:53;;;;;;;33.33;16.05;;;14.30;99.90;;;;;;5053833;28;20028;-69
2022/10/08 07:22:19;;;;;;;36.55;15.52;;;14.20;99.90;;;;;;5061005;28;20620;-69
2022/10/08 07:24:45;;;;;;;25.65;14.20;;;14.20;99.90;;;;;;5061524;28;20012;-68
2022/10/08 07:27:11;;;;;;;25.67;12.82;;;14.30;99.90;;;;;;5064657;28;20481;-68
2022/10/08 07:29:37;;;;;;;21.83;12.43;;;14.30;99.90;;;;;;5063142;28;20048;-68
2022/10/08 07:32:02;;;;;;;26.17;12.73;;;14.40;99.90;;;;;;5063572;28;20105;-69
2022/10/08 07:34:28;;;;;;;17.45;10.05;;;14.40;99.90;;;;;;5069154;28;20028;-68
2022/10/08 07:36:54;;;;;;;19.83;10.00;;;14.40;99.90;;;;;;5058917;28;20544;-68
2022/10/08 07:39:20;;;;;;;21.65;9.82;;;14.40;99.90;;;;;;5061435;28;20032;-68
2022/10/08 07:41:46;;;;;;;19.85;11.00;;;14.30;99.90;;;;;;5060929;28;20044;-69
2022/10/08 07:44:12;;;;;;;22.05;10.43;;;14.40;99.90;;;;;;5060585;28;20400;-69
2022/10/08 07:46:43;;;;;;;24.75;12.30;;;14.40;99.90;;;;;;5063093;28;20296;-68
2022/10/08 07:49:08;;;;;;;22.33;10.52;;;14.40;99.90;;;;;;5053261;28;20029;-68
2022/10/08 07:51:34;;;;;;;24.83;9.93;;;14.40;99.90;;;;;;5059931;28;20381;-69
2022/10/08 07:54:01;;;;;;;20.70;9.98;;;14.40;99.90;;;;;;5063555;28;20117;-68
2022/10/08 07:56:27;;;;;;;18.48;8.85;;;14.50;99.90;;;;;;5058800;28;20393;-69
2022/10/08 07:58:53;;;;;;;18.75;7.93;;;14.50;99.90;;;;;;5053438;28;20017;-69
2022/10/08 08:01:21;;;;;;;18.13;8.52;;;14.50;99.90;;;;;;5065945;28;20514;-69
2022/10/08 08:04:02;;;;;;;16.17;8.27;;;14.50;99.90;;;;;;5072679;28;20027;-70
2022/10/08 08:06:28;;;;;;;17.17;7.85;;;14.60;99.90;;;;;;5072902;28;20052;-69
2022/10/08 08:08:54;;;;;;;18.00;8.35;;;14.60;99.90;;;;;;5072721;28;20372;-69
2022/10/08 08:11:22;;;;;;;14.27;7.00;;;14.70;99.90;;;;;;5072955;28;20021;-69
2022/10/08 08:13:48;;;;;;;15.32;6.43;;;14.80;99.90;;;;;;5066836;28;20025;-69
2022/10/08 08:16:20;;;;;;;20.73;6.10;;;14.80;99.90;;;;;;5070812;28;20032;-69
2022/10/08 08:18:47;;;;;;;15.45;6.40;;;14.90;99.90;;;;;;5071086;28;20017;-69
2022/10/08 08:21:20;;;;;;;17.73;5.68;;;15.00;99.90;;;;;;5072946;28;20020;-70
2022/10/08 08:23:48;;;;;;;17.35;5.85;;;14.90;99.90;;;;;;5072858;28;20028;-69
2022/10/08 08:26:19;;;;;;;15.45;6.55;;;15.00;99.90;;;;;;5072055;28;20495;-70
2022/10/08 08:28:52;;;;;;;11.52;5.68;;;15.00;99.90;;;;;;5073340;28;20104;-69
2022/10/08 08:31:25;;;;;;;16.88;5.18;;;15.10;99.90;;;;;;5073008;28;20025;-70
2022/10/08 08:33:54;;;;;;;19.23;5.30;;;15.20;99.90;;;;;;5073221;28;20029;-69
2022/10/08 08:36:27;;;;;;;11.43;5.03;;;15.10;99.90;;;;;;5072465;28;20473;-69
2022/10/08 08:38:53;;;;;;;18.80;5.65;;;15.10;99.90;;;;;;5073028;28;20021;-70
2022/10/08 08:41:45;;;;;;;15.48;5.00;;;15.10;99.90;;;;;;5067133;28;20047;-69
2022/10/08 08:44:12;;;;;;;13.68;5.07;;;15.10;99.90;;;;;;5053607;28;20465;-69
2022/10/08 08:46:43;;;;;;;11.25;4.22;;;15.10;99.90;;;;;;5053258;28;20036;-69
2022/10/08 08:49:27;;;;;;;15.85;5.15;;;15.20;99.90;;;;;;5052774;28;20021;-69
2022/10/08 08:51:55;;;;;;;12.50;4.05;;;15.30;99.90;;;;;;5051839;28;20389;-69
2022/10/08 08:54:22;;;;;;;10.90;4.80;;;15.30;99.90;;;;;;5052504;28;20021;-69
2022/10/08 08:56:48;;;;;;;17.15;4.35;;;15.20;99.90;;;;;;5038699;28;20033;-74
2022/10/08 08:59:28;;;;;;;11.07;4.18;;;15.20;99.90;;;;;;5051855;28;20496;-70
2022/10/08 09:01:58;;;;;;;13.27;3.90;;;15.20;99.90;;;;;;5080393;28;20032;-69
2022/10/08 09:04:41;;;;;;;16.85;4.40;;;15.20;99.90;;;;;;5074917;28;20020;-68
2022/10/08 09:07:11;;;;;;;11.15;3.70;;;15.20;99.90;;;;;;5084760;28;20077;-69
2022/10/08 09:09:43;;;;;;;14.82;4.38;;;15.30;99.90;;;;;;5075150;28;20023;-68
2022/10/08 09:12:42;;;;;;;12.20;3.63;;;15.30;99.90;;;;;;5064740;28;20077;-68
2022/10/08 09:15:38;;;;;;;14.77;4.35;;;15.20;99.90;;;;;;5064189;28;20049;-69
2022/10/08 09:18:04;;;;;;;12.57;4.43;;;15.20;99.90;;;;;;5068488;28;20068;-69
2022/10/08 09:20:30;;;;;;;13.68;3.80;;;15.40;99.90;;;;;;5061088;28;20114;-68
2022/10/08 09:22:57;;;;;;;11.63;3.60;;;15.50;99.90;;;;;;5087363;28;20027;-69
2022/10/08 09:25:25;;;;;;;13.23;3.72;;;15.60;99.90;;;;;;5074919;28;20050;-69
2022/10/08 09:27:59;;;;;;;12.93;3.28;;;15.70;99.90;;;;;;5067945;28;20024;-69
2022/10/08 09:30:34;;;;;;;7.43;3.33;;;15.60;99.90;;;;;;5069573;28;20024;-68
2022/10/08 09:33:04;;;;;;;8.30;2.97;;;15.50;99.90;;;;;;5070894;28;20060;-69
2022/10/08 09:35:32;;;;;;;10.07;3.00;;;15.60;99.90;;;;;;5086952;28;20103;-69
2022/10/08 09:37:58;;;;;;;8.77;2.65;;;15.70;99.90;;;;;;5078516;28;20031;-69
2022/10/08 09:40:26;;;;;;;13.02;2.88;;;15.90;99.90;;;;;;5079995;28;20025;-68
2022/10/08 09:43:21;;;;;;;9.35;2.33;;;16.00;99.90;;;;;;5075216;28;20028;-68
2022/10/08 09:45:48;;;;;;;10.80;3.00;;;16.10;99.90;;;;;;5058309;28;20068;-68
2022/10/08 09:48:21;;;;;;;4.80;2.20;;;16.30;99.90;;;;;;5062327;28;20602;-68
2022/10/08 09:51:01;;;;;;;7.82;3.03;;;16.40;99.90;;;;;;5077751;28;20035;-69
2022/10/08 09:53:51;;;;;;;15.73;3.10;;;16.60;99.90;;;;;;5086909;28;20103;-69
2022/10/08 09:56:26;;;;;;;7.25;2.42;;;16.80;99.90;;;;;;5068697;28;20029;-69
2022/10/08 09:59:04;;;;;;;8.25;2.47;;;17.10;99.90;;;;;;5062927;28;20044;-70
2022/10/08 10:01:30;;;;;;;7.50;2.30;;;17.30;99.90;;;;;;5078250;28;20255;-70
2022/10/08 10:04:02;;;;;;;5.55;1.95;;;17.20;99.90;;;;;;5060818;28;20047;-70
2022/10/08 10:06:32;;;;;;;;;;;16.90;99.90;;;;;;5064428;28;20028;-71
2022/10/08 10:09:10;;;;;;;8.63;2.00;;;16.80;99.90;;;;;;5059630;28;19917;-70
2022/10/08 10:11:40;;;;;;;3.80;2.03;;;16.80;99.90;;;;;;5074191;28;20021;-70
2022/10/08 10:14:33;;;;;;;8.77;1.65;;;16.80;99.90;;;;;;5070585;28;20017;-71
2022/10/08 10:17:08;;;;;;;5.57;1.63;;;16.90;99.90;;;;;;5080345;28;20413;-69
2022/10/08 10:19:43;;;;;;;4.28;1.23;;;16.70;99.90;;;;;;5059185;28;20036;-69
2022/10/08 10:22:14;;;;;;;7.18;1.83;;;16.70;99.90;;;;;;5052672;28;20033;-70
2022/10/08 10:25:02;;;;;;;5.80;1.40;;;16.70;99.90;;;;;;5058638;28;20090;-70
2022/10/08 10:27:36;;;;;;;4.30;1.63;;;17.00;99.90;;;;;;5062686;28;20548;-70
2022/10/08 10:30:21;;;;;;;7.90;1.80;;;16.90;99.90;;;;;;5067422;28;20546;-69
2022/10/08 10:33:03;;;;;;;11.55;1.65;;;16.80;99.90;;;;;;5061743;28;20557;-70
2022/10/08 10:35:31;;;;;;;4.95;1.25;;;16.70;99.90;;;;;;5069520;28;20477;-69
2022/10/08 10:38:01;;;;;;;7.57;1.50;;;16.70;99.90;;;;;;5074738;28;20137;-69
2022/10/08 10:40:38;;;;;;;10.73;1.27;;;16.60;99.90;;;;;;5063113;28;20086;-69
2022/10/08 10:43:10;;;;;;;9.38;1.50;;;16.60;99.90;;;;;;5068826;28;20468;-69
2022/10/08 10:45:38;;;;;;;6.68;1.65;;;16.70;99.90;;;;;;5067786;28;20039;-70
2022/10/08 10:48:06;;;;;;;6.95;1.65;;;17.00;99.90;;;;;;5074927;28;20025;-70
2022/10/08 10:50:56;;;;;;;8.30;1.42;;;17.30;99.90;;;;;;5065914;28;20036;-69
2022/10/08 10:53:37;;;;;;;5.00;1.15;;;17.40;99.90;;;;;;5065012;28;20036;-70
2022/10/08 10:56:14;;;;;;;6.75;1.58;;;17.60;99.90;;;;;;5063962;28;20017;-71
2022/10/08 10:59:09;;;;;;;6.00;1.50;;;17.70;99.90;;;;;;5064666;28;20455;-70
2022/10/08 11:02:10;;;;;;;8.68;1.67;;;17.70;99.90;;;;;;5067071;28;20031;-69
2022/10/08 11:04:45;;;;;;;5.70;1.25;;;17.50;99.90;;;;;;5062338;28;20493;-70
2022/10/08 11:07:25;;;;;;;5.28;1.25;;;17.30;99.90;;;;;;5057897;28;20036;-70
2022/10/08 11:10:15;;;;;;;5.03;1.20;;;17.30;99.90;;;;;;5069339;28;20021;-69
2022/10/08 11:13:10;;;;;;;5.03;1.20;;;17.30;99.90;;;;;;5060705;28;20449;-70
2022/10/08 11:16:11;;;;;;;2.83;1.20;;;17.50;99.90;;;;;;5065272;28;20049;-69
2022/10/08 11:19:04;;;;;;;5.35;1.17;;;17.70;99.90;;;;;;5059148;28;20119;-70
2022/10/08 11:21:42;;;;;;;4.47;0.90;;;17.90;99.90;;;;;;5063209;28;20556;-70
2022/10/08 11:24:17;;;;;;;7.20;1.08;;;17.90;99.90;;;;;;5062136;28;20021;-70
2022/10/08 11:27:01;;;;;;;3.65;0.85;;;18.10;99.90;;;;;;5065653;28;20028;-70
2022/10/08 11:29:42;;;;;;;7.25;1.00;;;18.20;99.90;;;;;;5061507;28;20108;-70
2022/10/08 11:32:12;;;;;;;5.88;1.77;;;18.40;99.90;;;;;;5067291;28;20469;-69
2022/10/08 11:34:48;;;;;;;10.93;1.55;;;18.40;99.90;;;;;;5056829;28;20078;-69
2022/10/08 11:37:27;;;;;;;4.63;1.38;;;18.30;99.90;;;;;;5062234;28;20021;-70
2022/10/08 11:40:17;;;;;;;6.15;1.42;;;18.20;99.90;;;;;;5060596;28;20044;-68
2022/10/08 11:42:57;;;;;;;7.30;1.40;;;18.10;99.90;;;;;;5062643;28;20041;-69
2022/10/08 11:45:23;;;;;;;6.63;1.08;;;18.00;99.90;;;;;;5064112;28;20081;-69
2022/10/08 11:47:59;;;;;;;4.85;1.08;;;17.90;99.90;;;;;;5057746;28;20029;-70
2022/10/08 11:50:31;;;;;;;3.95;1.10;;;17.80;99.90;;;;;;5059736;28;20021;-70
2022/10/08 11:53:18;;;;;;;6.07;1.23;;;17.90;99.90;;;;;;5059281;28;20473;-69
2022/10/08 11:55:54;;;;;;;2.55;0.73;;;18.00;99.90;;;;;;5059853;28;20020;-69
2022/10/08 11:58:27;;;;;;;3.15;0.80;;;18.00;99.90;;;;;;5067184;28;20028;-70
2022/10/08 12:01:04;;;;;;;3.78;0.80;;;17.90;99.90;;;;;;5062826;28;20036;-69
2022/10/08 12:03:34;;;;;;;2.50;0.65;;;17.90;99.90;;;;;;5053760;28;20399;-69
2022/10/08 12:06:24;;;;;;;4.28;1.00;;;17.90;99.90;;;;;;5074378;28;20028;-69
2022/10/08 12:09:04;;;;;;;3.58;0.82;;;17.70;99.90;;;;;;5054518;28;20048;-69
2022/10/08 12:11:36;;;;;;;3.25;1.15;;;17.50;99.90;;;;;;5068969;28;20065;-69
2022/10/08 12:14:25;;;;;;;5.70;0.82;;;17.40;99.90;;;;;;5062762;28;20031;-69
2022/10/08 12:16:54;;;;;;;4.45;1.15;;;17.30;99.90;;;;;;5058132;28;20041;-69
2022/10/08 12:19:32;;;;;;;7.45;1.20;;;17.30;99.90;;;;;;5054918;28;20033;-70
2022/10/08 12:22:23;;;;;;;5.57;1.08;;;17.20;99.90;;;;;;5059862;28;20054;-70
2022/10/08 12:25:02;;;;;;;4.78;1.27;;;17.20;99.90;;;;;;5064118;28;20043;-69
2022/10/08 12:27:33;;;;;;;3.05;1.10;;;17.10;99.90;;;;;;5063430;28;20025;-69
2022/10/08 12:30:08;;;;;;;5.47;0.80;;;17.20;99.90;;;;;;5060226;28;20040;-69
2022/10/08 12:32:43;;;;;;;8.23;1.60;;;17.40;99.90;;;;;;5065794;28;20390;-69
2022/10/08 12:35:32;;;;;;;6.55;1.42;;;17.40;99.90;;;;;;5056543;28;20024;-69
2022/10/08 12:38:00;;;;;;;4.93;0.90;;;17.40;99.90;;;;;;5060004;28;20044;-70
2022/10/08 12:40:46;;;;;;;5.82;1.10;;;17.40;99.90;;;;;;5057184;28;20036;-70
2022/10/08 12:43:51;;;;;;;3.97;1.23;;;17.50;99.90;;;;;;5055303;28;20085;-69
2022/10/08 12:46:44;;;;;;;10.85;1.58;;;17.60;99.90;;;;;;5058982;28;20032;-69
2022/10/08 12:49:23;;;;;;;5.82;0.88;;;17.70;99.90;;;;;;5057017;28;20039;-68
2022/10/08 12:52:09;;;;;;;1.25;0.70;;;17.80;99.90;;;;;;5058919;28;20021;-68
2022/10/08 12:54:36;;;;;;;4.32;1.45;;;17.80;99.90;;;;;;5061049;28;20028;-70
2022/10/08 12:57:08;;;;;;;5.47;1.25;;;17.60;99.90;;;;;;5063337;28;20024;-68
2022/10/08 12:59:36;;;;;;;2.40;1.00;;;17.60;99.90;;;;;;5057775;28;20095;-69
2022/10/08 13:02:01;;;;;;;5.40;1.30;;;17.50;99.90;;;;;;5053705;28;20029;-68
2022/10/08 13:04:32;;;;;;;6.13;0.90;;;17.40;99.90;;;;;;5059254;28;20028;-68